sensor_id;sensor_type;location;lat;lon;timestamp;noise_LAeq;noise_LA_min;noise_LA_max;noise_LA01;noise_LA95
43168;Laerm;28773;48.804;9.024;2023-02-28T00:01:29;31.18;30.03;32.35;;
43168;Laerm;28773;48.804;9.024;2023-02-28T00:03:55;31.35;29.80;36.21;;
43168;Laerm;28773;48.804;9.024;2023-02-28T00:06:20;31.18;29.98;32.52;;
43168;Laerm;28773;48.804;9.024;2023-02-28T00:08:46;31.32;30.11;36.51;;
43168;Laerm;28773;48.804;9.024;2023-02-28T00:11:13;31.21;29.93;32.36;;
43168;Laerm;28773;48.804;9.024;2023-02-28T00:13:39;31.22;29.85;32.39;;
43168;Laerm;28773;48.804;9.024;2023-02-28T00:16:06;31.32;29.94;34.63;;
43168;Laerm;28773;48.804;9.024;2023-02-28T00:18:31;31.22;29.91;32.56;;
43168;Laerm;28773;48.804;9.024;2023-02-28T00:20:57;31.32;29.90;34.64;;
43168;Laerm;28773;48.804;9.024;2023-02-28T00:23:22;31.25;30.02;32.41;;
43168;Laerm;28773;48.804;9.024;2023-02-28T00:25:47;31.31;29.81;35.13;;
43168;Laerm;28773;48.804;9.024;2023-02-28T00:28:12;31.30;29.91;34.51;;
43168;Laerm;28773;48.804;9.024;2023-02-28T00:30:37;31.28;30.02;32.51;;
43168;Laerm;28773;48.804;9.024;2023-02-28T00:33:03;31.28;29.76;32.45;;
43168;Laerm;28773;48.804;9.024;2023-02-28T00:35:28;31.30;30.09;32.52;;
43168;Laerm;28773;48.804;9.024;2023-02-28T00:37:53;31.43;29.91;36.50;;
43168;Laerm;28773;48.804;9.024;2023-02-28T00:40:18;31.45;29.73;37.52;;
43168;Laerm;28773;48.804;9.024;2023-02-28T00:42:43;31.42;29.86;35.15;;
43168;Laerm;28773;48.804;9.024;2023-02-28T00:45:08;31.32;30.10;32.45;;
43168;Laerm;28773;48.804;9.024;2023-02-28T00:47:34;31.34;30.23;32.54;;
43168;Laerm;28773;48.804;9.024;2023-02-28T00:49:59;31.35;30.07;32.54;;
43168;Laerm;28773;48.804;9.024;2023-02-28T00:52:25;31.36;30.02;32.76;;
43168;Laerm;28773;48.804;9.024;2023-02-28T00:54:50;31.37;30.19;32.88;;
43168;Laerm;28773;48.804;9.024;2023-02-28T00:57:15;31.38;30.11;32.57;;
43168;Laerm;28773;48.804;9.024;2023-02-28T00:59:40;31.41;30.25;32.74;;
43168;Laerm;28773;48.804;9.024;2023-02-28T01:02:06;31.40;30.22;32.79;;
43168;Laerm;28773;48.804;9.024;2023-02-28T01:04:31;31.40;30.20;32.70;;
43168;Laerm;28773;48.804;9.024;2023-02-28T01:06:56;31.41;30.13;32.70;;
43168;Laerm;28773;48.804;9.024;2023-02-28T01:09:21;31.43;29.81;32.53;;
43168;Laerm;28773;48.804;9.024;2023-02-28T01:11:46;31.43;29.95;32.55;;
43168;Laerm;28773;48.804;9.024;2023-02-28T01:14:13;31.46;29.88;32.88;;
43168;Laerm;28773;48.804;9.024;2023-02-28T01:16:38;31.47;30.24;32.93;;
43168;Laerm;28773;48.804;9.024;2023-02-28T01:19:03;31.49;30.35;32.66;;
43168;Laerm;28773;48.804;9.024;2023-02-28T01:21:29;31.52;30.13;32.60;;
43168;Laerm;28773;48.804;9.024;2023-02-28T01:23:55;31.53;30.19;33.05;;
43168;Laerm;28773;48.804;9.024;2023-02-28T01:26:21;31.54;30.12;32.61;;
43168;Laerm;28773;48.804;9.024;2023-02-28T01:28:47;31.71;30.19;37.49;;
43168;Laerm;28773;48.804;9.024;2023-02-28T01:31:13;31.68;30.30;35.97;;
43168;Laerm;28773;48.804;9.024;2023-02-28T01:33:39;31.60;30.31;32.89;;
43168;Laerm;28773;48.804;9.024;2023-02-28T01:36:05;31.62;30.39;32.96;;
43168;Laerm;28773;48.804;9.024;2023-02-28T01:38:31;32.07;30.33;38.28;;
43168;Laerm;28773;48.804;9.024;2023-02-28T01:40:56;31.66;30.16;32.80;;
43168;Laerm;28773;48.804;9.024;2023-02-28T01:43:23;31.66;30.50;32.94;;
43168;Laerm;28773;48.804;9.024;2023-02-28T01:45:49;31.66;30.34;33.09;;
43168;Laerm;28773;48.804;9.024;2023-02-28T01:48:14;31.68;30.37;32.81;;
43168;Laerm;28773;48.804;9.024;2023-02-28T01:50:41;31.92;30.51;38.27;;
43168;Laerm;28773;48.804;9.024;2023-02-28T01:53:08;31.70;30.47;32.92;;
43168;Laerm;28773;48.804;9.024;2023-02-28T01:55:35;31.70;30.51;33.02;;
43168;Laerm;28773;48.804;9.024;2023-02-28T01:58:02;31.71;30.44;32.76;;
43168;Laerm;28773;48.804;9.024;2023-02-28T02:00:29;31.74;30.38;32.91;;
43168;Laerm;28773;48.804;9.024;2023-02-28T02:03:16;31.87;30.56;37.70;;
43168;Laerm;28773;48.804;9.024;2023-02-28T02:05:40;31.81;30.50;33.25;;
43168;Laerm;28773;48.804;9.024;2023-02-28T02:08:09;31.81;30.67;33.00;;
43168;Laerm;28773;48.804;9.024;2023-02-28T02:10:39;32.18;30.49;41.37;;
43168;Laerm;28773;48.804;9.024;2023-02-28T02:13:09;31.84;30.57;33.10;;
43168;Laerm;28773;48.804;9.024;2023-02-28T02:21:04;31.86;30.66;33.07;;
43168;Laerm;28773;48.804;9.024;2023-02-28T02:28:46;31.89;30.63;33.14;;
43168;Laerm;28773;48.804;9.024;2023-02-28T02:36:13;31.92;30.77;33.44;;
43168;Laerm;28773;48.804;9.024;2023-02-28T02:43:40;31.94;30.72;33.26;;
43168;Laerm;28773;48.804;9.024;2023-02-28T02:46:10;32.08;30.68;37.14;;
43168;Laerm;28773;48.804;9.024;2023-02-28T02:48:38;31.92;30.73;33.12;;
43168;Laerm;28773;48.804;9.024;2023-02-28T02:51:06;31.90;30.66;33.15;;
43168;Laerm;28773;48.804;9.024;2023-02-28T02:53:37;32.11;30.53;38.39;;
43168;Laerm;28773;48.804;9.024;2023-02-28T02:56:04;31.87;30.57;33.05;;
43168;Laerm;28773;48.804;9.024;2023-02-28T02:58:32;31.87;30.46;33.10;;
43168;Laerm;28773;48.804;9.024;2023-02-28T03:00:59;31.86;30.44;33.02;;
43168;Laerm;28773;48.804;9.024;2023-02-28T03:03:26;31.83;30.34;33.30;;
43168;Laerm;28773;48.804;9.024;2023-02-28T03:05:56;31.83;30.66;33.12;;
43168;Laerm;28773;48.804;9.024;2023-02-28T03:08:21;31.81;30.41;32.95;;
43168;Laerm;28773;48.804;9.024;2023-02-28T03:10:50;31.79;30.68;32.84;;
43168;Laerm;28773;48.804;9.024;2023-02-28T03:16:09;31.85;30.60;34.07;;
43168;Laerm;28773;48.804;9.024;2023-02-28T03:18:54;31.82;30.57;33.07;;
43168;Laerm;28773;48.804;9.024;2023-02-28T03:21:38;31.83;30.54;33.06;;
43168;Laerm;28773;48.804;9.024;2023-02-28T03:26:30;31.83;30.50;33.10;;
43168;Laerm;28773;48.804;9.024;2023-02-28T03:29:05;32.07;30.54;36.77;;
43168;Laerm;28773;48.804;9.024;2023-02-28T03:31:36;31.96;30.35;38.24;;
43168;Laerm;28773;48.804;9.024;2023-02-28T03:34:10;32.03;30.38;38.15;;
43168;Laerm;28773;48.804;9.024;2023-02-28T03:36:44;31.80;30.56;33.02;;
43168;Laerm;28773;48.804;9.024;2023-02-28T03:39:15;31.81;30.53;33.02;;
43168;Laerm;28773;48.804;9.024;2023-02-28T03:41:42;31.97;30.66;39.08;;
43168;Laerm;28773;48.804;9.024;2023-02-28T03:44:13;31.87;30.67;35.38;;
43168;Laerm;28773;48.804;9.024;2023-02-28T03:46:41;32.03;30.54;39.12;;
43168;Laerm;28773;48.804;9.024;2023-02-28T03:49:13;31.82;30.64;33.05;;
43168;Laerm;28773;48.804;9.024;2023-02-28T03:51:40;31.95;30.43;37.99;;
43168;Laerm;28773;48.804;9.024;2023-02-28T03:54:08;32.02;30.70;35.17;;
43168;Laerm;28773;48.804;9.024;2023-02-28T03:56:37;32.34;30.52;38.81;;
43168;Laerm;28773;48.804;9.024;2023-02-28T03:59:07;32.02;30.52;37.04;;
43168;Laerm;28773;48.804;9.024;2023-02-28T04:01:37;32.20;30.22;38.30;;
43168;Laerm;28773;48.804;9.024;2023-02-28T04:04:03;31.82;30.52;33.13;;
43168;Laerm;28773;48.804;9.024;2023-02-28T04:06:30;32.20;30.65;37.66;;
43168;Laerm;28773;48.804;9.024;2023-02-28T04:08:56;32.17;30.69;37.87;;
43168;Laerm;28773;48.804;9.024;2023-02-28T04:11:40;32.21;30.45;40.56;;
43168;Laerm;28773;48.804;9.024;2023-02-28T04:14:06;32.03;30.56;38.68;;
43168;Laerm;28773;48.804;9.024;2023-02-28T04:16:33;32.07;30.56;37.85;;
43168;Laerm;28773;48.804;9.024;2023-02-28T04:18:58;32.39;30.17;39.89;;
43168;Laerm;28773;48.804;9.024;2023-02-28T04:21:30;31.94;30.52;37.24;;
43168;Laerm;28773;48.804;9.024;2023-02-28T04:23:56;32.20;30.75;36.97;;
43168;Laerm;28773;48.804;9.024;2023-02-28T04:26:25;32.12;30.52;39.33;;
43168;Laerm;28773;48.804;9.024;2023-02-28T04:28:50;32.32;30.57;38.63;;
43168;Laerm;28773;48.804;9.024;2023-02-28T04:31:15;32.05;30.50;39.39;;
43168;Laerm;28773;48.804;9.024;2023-02-28T04:33:40;32.08;30.20;37.04;;
43168;Laerm;28773;48.804;9.024;2023-02-28T04:36:07;31.78;30.26;33.05;;
43168;Laerm;28773;48.804;9.024;2023-02-28T04:38:34;31.94;30.60;37.17;;
43168;Laerm;28773;48.804;9.024;2023-02-28T04:40:59;32.36;30.62;38.63;;
43168;Laerm;28773;48.804;9.024;2023-02-28T04:43:28;32.09;30.31;39.45;;
43168;Laerm;28773;48.804;9.024;2023-02-28T04:45:54;32.36;30.23;39.50;;
43168;Laerm;28773;48.804;9.024;2023-02-28T04:48:23;32.45;30.46;39.28;;
43168;Laerm;28773;48.804;9.024;2023-02-28T04:50:49;32.14;30.52;36.95;;
43168;Laerm;28773;48.804;9.024;2023-02-28T04:53:14;32.12;30.52;37.83;;
43168;Laerm;28773;48.804;9.024;2023-02-28T04:55:39;32.28;30.37;38.85;;
43168;Laerm;28773;48.804;9.024;2023-02-28T04:58:05;32.15;30.62;36.54;;
43168;Laerm;28773;48.804;9.024;2023-02-28T05:00:30;31.83;30.43;35.88;;
43168;Laerm;28773;48.804;9.024;2023-02-28T05:02:55;32.60;30.53;39.06;;
43168;Laerm;28773;48.804;9.024;2023-02-28T05:05:21;32.51;30.55;38.75;;
43168;Laerm;28773;48.804;9.024;2023-02-28T05:07:46;32.33;30.46;37.98;;
43168;Laerm;28773;48.804;9.024;2023-02-28T05:10:11;32.80;30.51;38.91;;
43168;Laerm;28773;48.804;9.024;2023-02-28T05:12:36;32.80;30.41;41.50;;
43168;Laerm;28773;48.804;9.024;2023-02-28T05:15:02;32.25;30.37;38.52;;
43168;Laerm;28773;48.804;9.024;2023-02-28T05:17:27;33.02;30.56;40.70;;
43168;Laerm;28773;48.804;9.024;2023-02-28T05:19:53;32.74;30.39;39.61;;
43168;Laerm;28773;48.804;9.024;2023-02-28T05:22:18;32.24;30.26;38.45;;
43168;Laerm;28773;48.804;9.024;2023-02-28T05:24:43;32.51;30.50;39.91;;
43168;Laerm;28773;48.804;9.024;2023-02-28T05:27:09;33.05;30.19;42.47;;
43168;Laerm;28773;48.804;9.024;2023-02-28T05:29:34;32.82;30.24;39.38;;
43168;Laerm;28773;48.804;9.024;2023-02-28T05:32:06;33.38;30.21;39.75;;
43168;Laerm;28773;48.804;9.024;2023-02-28T05:34:31;32.74;30.55;37.81;;
43168;Laerm;28773;48.804;9.024;2023-02-28T05:36:56;32.79;30.51;39.17;;
43168;Laerm;28773;48.804;9.024;2023-02-28T05:39:21;32.69;30.38;39.43;;
43168;Laerm;28773;48.804;9.024;2023-02-28T05:41:47;33.35;30.47;40.34;;
43168;Laerm;28773;48.804;9.024;2023-02-28T05:44:12;32.95;30.22;40.42;;
43168;Laerm;28773;48.804;9.024;2023-02-28T05:46:37;33.06;30.27;38.12;;
43168;Laerm;28773;48.804;9.024;2023-02-28T05:49:03;33.71;30.60;42.78;;
43168;Laerm;28773;48.804;9.024;2023-02-28T05:51:28;33.23;30.59;39.92;;
43168;Laerm;28773;48.804;9.024;2023-02-28T05:53:53;33.00;30.23;39.73;;
43168;Laerm;28773;48.804;9.024;2023-02-28T05:56:19;33.54;30.60;38.98;;
43168;Laerm;28773;48.804;9.024;2023-02-28T05:58:44;33.36;30.47;38.94;;
43168;Laerm;28773;48.804;9.024;2023-02-28T06:01:26;33.64;30.34;44.45;;
43168;Laerm;28773;48.804;9.024;2023-02-28T06:03:55;33.23;30.26;40.61;;
43168;Laerm;28773;48.804;9.024;2023-02-28T06:06:20;33.81;30.55;44.78;;
43168;Laerm;28773;48.804;9.024;2023-02-28T06:08:46;33.38;30.22;39.73;;
43168;Laerm;28773;48.804;9.024;2023-02-28T06:11:11;33.69;30.50;40.81;;
43168;Laerm;28773;48.804;9.024;2023-02-28T06:13:36;34.12;30.66;39.84;;
43168;Laerm;28773;48.804;9.024;2023-02-28T06:16:01;33.76;30.68;38.47;;
43168;Laerm;28773;48.804;9.024;2023-02-28T06:18:26;33.89;30.66;39.60;;
43168;Laerm;28773;48.804;9.024;2023-02-28T06:20:52;34.30;30.77;42.05;;
43168;Laerm;28773;48.804;9.024;2023-02-28T06:23:19;34.07;30.76;41.69;;
43168;Laerm;28773;48.804;9.024;2023-02-28T06:25:45;34.84;30.30;52.25;;
43168;Laerm;28773;48.804;9.024;2023-02-28T06:28:10;33.58;30.64;40.34;;
43168;Laerm;28773;48.804;9.024;2023-02-28T06:30:36;33.34;30.76;39.49;;
43168;Laerm;28773;48.804;9.024;2023-02-28T06:33:01;33.69;30.41;38.94;;
43168;Laerm;28773;48.804;9.024;2023-02-28T06:35:26;34.06;30.69;40.69;;
43168;Laerm;28773;48.804;9.024;2023-02-28T06:37:52;34.04;30.71;40.05;;
43168;Laerm;28773;48.804;9.024;2023-02-28T06:40:17;33.54;30.46;39.31;;
43168;Laerm;28773;48.804;9.024;2023-02-28T06:42:42;34.23;30.40;41.87;;
43168;Laerm;28773;48.804;9.024;2023-02-28T06:45:07;34.49;30.76;43.55;;
43168;Laerm;28773;48.804;9.024;2023-02-28T06:47:34;34.10;30.78;41.68;;
43168;Laerm;28773;48.804;9.024;2023-02-28T06:49:59;33.88;30.57;41.54;;
43168;Laerm;28773;48.804;9.024;2023-02-28T06:52:26;33.58;30.62;41.33;;
43168;Laerm;28773;48.804;9.024;2023-02-28T06:54:51;33.31;30.44;39.82;;
43168;Laerm;28773;48.804;9.024;2023-02-28T06:57:24;33.02;30.45;38.85;;
43168;Laerm;28773;48.804;9.024;2023-02-28T06:59:50;33.93;30.58;39.07;;
43168;Laerm;28773;48.804;9.024;2023-02-28T07:02:15;33.86;30.60;41.13;;
43168;Laerm;28773;48.804;9.024;2023-02-28T07:04:40;34.22;30.17;41.92;;
43168;Laerm;28773;48.804;9.024;2023-02-28T07:07:09;33.51;30.31;39.20;;
43168;Laerm;28773;48.804;9.024;2023-02-28T07:09:34;33.38;30.49;38.50;;
43168;Laerm;28773;48.804;9.024;2023-02-28T07:11:59;33.12;30.62;39.31;;
43168;Laerm;28773;48.804;9.024;2023-02-28T07:14:25;33.26;30.35;38.74;;
43168;Laerm;28773;48.804;9.024;2023-02-28T07:16:51;33.04;30.31;40.53;;
43168;Laerm;28773;48.804;9.024;2023-02-28T07:19:16;33.46;30.31;40.03;;
43168;Laerm;28773;48.804;9.024;2023-02-28T07:21:41;33.90;30.62;39.80;;
43168;Laerm;28773;48.804;9.024;2023-02-28T07:24:06;34.05;30.43;41.14;;
43168;Laerm;28773;48.804;9.024;2023-02-28T07:26:31;33.54;30.34;40.48;;
43168;Laerm;28773;48.804;9.024;2023-02-28T07:28:58;33.71;30.24;40.67;;
43168;Laerm;28773;48.804;9.024;2023-02-28T07:31:24;33.66;30.54;40.26;;
43168;Laerm;28773;48.804;9.024;2023-02-28T07:33:49;33.62;30.62;42.75;;
43168;Laerm;28773;48.804;9.024;2023-02-28T07:36:15;33.51;30.31;38.58;;
43168;Laerm;28773;48.804;9.024;2023-02-28T07:38:42;33.51;30.68;40.74;;
43168;Laerm;28773;48.804;9.024;2023-02-28T07:41:08;34.14;30.44;40.61;;
43168;Laerm;28773;48.804;9.024;2023-02-28T07:43:34;33.44;30.33;40.82;;
43168;Laerm;28773;48.804;9.024;2023-02-28T07:46:10;33.86;30.50;39.84;;
43168;Laerm;28773;48.804;9.024;2023-02-28T07:48:35;33.27;30.37;41.10;;
43168;Laerm;28773;48.804;9.024;2023-02-28T07:51:01;34.12;30.51;49.12;;
43168;Laerm;28773;48.804;9.024;2023-02-28T07:53:26;33.21;30.65;38.85;;
43168;Laerm;28773;48.804;9.024;2023-02-28T07:55:58;33.60;30.47;39.30;;
43168;Laerm;28773;48.804;9.024;2023-02-28T07:58:24;32.80;30.21;40.11;;
43168;Laerm;28773;48.804;9.024;2023-02-28T08:00:50;33.60;30.09;42.16;;
43168;Laerm;28773;48.804;9.024;2023-02-28T08:03:16;32.96;30.24;38.82;;
43168;Laerm;28773;48.804;9.024;2023-02-28T08:05:41;32.86;29.97;38.98;;
43168;Laerm;28773;48.804;9.024;2023-02-28T08:08:07;32.55;30.25;38.64;;
43168;Laerm;28773;48.804;9.024;2023-02-28T08:10:32;33.66;30.22;50.32;;
43168;Laerm;28773;48.804;9.024;2023-02-28T08:12:57;33.08;30.50;40.18;;
43168;Laerm;28773;48.804;9.024;2023-02-28T08:15:23;32.83;30.13;40.89;;
43168;Laerm;28773;48.804;9.024;2023-02-28T08:17:48;33.82;30.37;47.56;;
43168;Laerm;28773;48.804;9.024;2023-02-28T08:20:13;33.46;30.38;39.59;;
43168;Laerm;28773;48.804;9.024;2023-02-28T08:22:38;32.95;30.19;40.79;;
43168;Laerm;28773;48.804;9.024;2023-02-28T08:25:03;33.06;30.33;42.59;;
43168;Laerm;28773;48.804;9.024;2023-02-28T08:27:29;32.37;30.29;38.33;;
43168;Laerm;28773;48.804;9.024;2023-02-28T08:29:54;32.79;30.13;39.67;;
43168;Laerm;28773;48.804;9.024;2023-02-28T08:32:19;33.91;30.32;46.91;;
43168;Laerm;28773;48.804;9.024;2023-02-28T08:34:44;32.70;30.26;40.31;;
43168;Laerm;28773;48.804;9.024;2023-02-28T08:37:10;33.24;30.05;42.03;;
43168;Laerm;28773;48.804;9.024;2023-02-28T08:39:36;33.03;30.08;40.15;;
43168;Laerm;28773;48.804;9.024;2023-02-28T08:42:02;32.59;30.42;38.84;;
43168;Laerm;28773;48.804;9.024;2023-02-28T08:44:27;33.05;30.37;38.35;;
43168;Laerm;28773;48.804;9.024;2023-02-28T08:46:52;32.84;29.73;39.60;;
43168;Laerm;28773;48.804;9.024;2023-02-28T08:49:17;32.74;30.19;39.35;;
43168;Laerm;28773;48.804;9.024;2023-02-28T08:51:43;32.80;30.30;39.96;;
43168;Laerm;28773;48.804;9.024;2023-02-28T08:54:08;32.91;30.27;42.74;;
43168;Laerm;28773;48.804;9.024;2023-02-28T08:56:34;33.09;30.21;40.53;;
43168;Laerm;28773;48.804;9.024;2023-02-28T08:58:59;32.70;30.25;38.63;;
43168;Laerm;28773;48.804;9.024;2023-02-28T09:01:25;33.29;30.24;51.96;;
43168;Laerm;28773;48.804;9.024;2023-02-28T09:03:52;32.76;30.19;39.50;;
43168;Laerm;28773;48.804;9.024;2023-02-28T09:06:17;33.10;30.17;45.37;;
43168;Laerm;28773;48.804;9.024;2023-02-28T09:08:43;33.14;30.17;42.04;;
43168;Laerm;28773;48.804;9.024;2023-02-28T09:11:09;33.24;30.34;38.95;;
43168;Laerm;28773;48.804;9.024;2023-02-28T09:13:34;32.92;30.25;39.47;;
43168;Laerm;28773;48.804;9.024;2023-02-28T09:16:00;32.93;30.33;40.07;;
43168;Laerm;28773;48.804;9.024;2023-02-28T09:18:25;33.73;30.25;43.39;;
43168;Laerm;28773;48.804;9.024;2023-02-28T09:20:51;32.32;30.24;38.59;;
43168;Laerm;28773;48.804;9.024;2023-02-28T09:23:16;32.83;30.30;38.17;;
43168;Laerm;28773;48.804;9.024;2023-02-28T09:25:49;32.36;30.05;40.10;;
43168;Laerm;28773;48.804;9.024;2023-02-28T09:28:14;32.11;30.17;38.48;;
43168;Laerm;28773;48.804;9.024;2023-02-28T09:30:46;33.36;30.27;42.95;;
43168;Laerm;28773;48.804;9.024;2023-02-28T09:33:12;32.65;30.14;40.54;;
43168;Laerm;28773;48.804;9.024;2023-02-28T09:35:38;32.67;30.19;37.98;;
43168;Laerm;28773;48.804;9.024;2023-02-28T09:38:03;32.64;30.03;38.19;;
43168;Laerm;28773;48.804;9.024;2023-02-28T09:40:29;33.20;30.25;41.42;;
43168;Laerm;28773;48.804;9.024;2023-02-28T09:42:55;33.00;30.14;38.82;;
43168;Laerm;28773;48.804;9.024;2023-02-28T09:45:29;32.69;30.19;39.67;;
43168;Laerm;28773;48.804;9.024;2023-02-28T09:47:58;32.76;30.09;38.66;;
43168;Laerm;28773;48.804;9.024;2023-02-28T09:50:30;33.40;30.29;42.19;;
43168;Laerm;28773;48.804;9.024;2023-02-28T09:52:57;33.80;30.14;45.03;;
43168;Laerm;28773;48.804;9.024;2023-02-28T09:55:30;32.55;30.01;39.27;;
43168;Laerm;28773;48.804;9.024;2023-02-28T09:57:58;33.07;30.04;42.68;;
43168;Laerm;28773;48.804;9.024;2023-02-28T10:00:32;32.77;30.02;38.99;;
43168;Laerm;28773;48.804;9.024;2023-02-28T10:03:46;33.15;30.19;40.51;;
43168;Laerm;28773;48.804;9.024;2023-02-28T10:06:01;33.19;30.19;43.23;;
43168;Laerm;28773;48.804;9.024;2023-02-28T10:08:34;33.25;29.99;40.82;;
43168;Laerm;28773;48.804;9.024;2023-02-28T10:11:01;32.42;29.95;41.86;;
43168;Laerm;28773;48.804;9.024;2023-02-28T10:16:08;33.07;30.24;40.42;;
43168;Laerm;28773;48.804;9.024;2023-02-28T10:21:08;33.18;29.98;39.41;;
43168;Laerm;28773;48.804;9.024;2023-02-28T10:23:38;33.04;29.83;41.34;;
43168;Laerm;28773;48.804;9.024;2023-02-28T10:26:13;33.60;30.03;44.10;;
43168;Laerm;28773;48.804;9.024;2023-02-28T10:28:40;33.60;29.90;40.89;;
43168;Laerm;28773;48.804;9.024;2023-02-28T10:31:06;33.30;30.24;40.49;;
43168;Laerm;28773;48.804;9.024;2023-02-28T10:33:33;33.06;29.80;44.15;;
43168;Laerm;28773;48.804;9.024;2023-02-28T10:35:59;33.34;29.94;41.89;;
43168;Laerm;28773;48.804;9.024;2023-02-28T10:38:35;32.93;30.11;38.01;;
43168;Laerm;28773;48.804;9.024;2023-02-28T10:41:11;32.84;29.82;39.60;;
43168;Laerm;28773;48.804;9.024;2023-02-28T10:43:38;32.74;29.81;39.88;;
43168;Laerm;28773;48.804;9.024;2023-02-28T10:48:38;32.48;29.75;39.21;;
43168;Laerm;28773;48.804;9.024;2023-02-28T10:51:05;33.45;30.11;41.41;;
43168;Laerm;28773;48.804;9.024;2023-02-28T10:53:53;32.54;29.86;40.38;;
43168;Laerm;28773;48.804;9.024;2023-02-28T10:56:18;33.36;29.70;44.55;;
43168;Laerm;28773;48.804;9.024;2023-02-28T10:58:47;32.10;29.83;43.11;;
43168;Laerm;28773;48.804;9.024;2023-02-28T11:01:21;33.60;29.77;40.88;;
43168;Laerm;28773;48.804;9.024;2023-02-28T11:03:46;33.33;29.76;42.90;;
43168;Laerm;28773;48.804;9.024;2023-02-28T11:06:16;33.10;30.09;40.83;;
43168;Laerm;28773;48.804;9.024;2023-02-28T11:09:06;33.03;29.90;41.82;;
43168;Laerm;28773;48.804;9.024;2023-02-28T11:11:31;33.28;29.68;40.10;;
43168;Laerm;28773;48.804;9.024;2023-02-28T11:14:07;33.00;29.25;43.83;;
43168;Laerm;28773;48.804;9.024;2023-02-28T11:16:43;32.94;30.07;41.96;;
43168;Laerm;28773;48.804;9.024;2023-02-28T11:19:14;32.85;29.41;40.13;;
43168;Laerm;28773;48.804;9.024;2023-02-28T11:21:45;33.13;29.96;39.89;;
43168;Laerm;28773;48.804;9.024;2023-02-28T11:24:16;33.59;29.45;43.01;;
43168;Laerm;28773;48.804;9.024;2023-02-28T11:26:46;32.54;30.07;39.05;;
43168;Laerm;28773;48.804;9.024;2023-02-28T11:29:27;33.08;29.82;40.79;;
43168;Laerm;28773;48.804;9.024;2023-02-28T11:32:03;32.76;29.84;40.16;;
43168;Laerm;28773;48.804;9.024;2023-02-28T11:34:29;32.31;29.57;40.31;;
43168;Laerm;28773;48.804;9.024;2023-02-28T11:36:55;33.47;29.73;42.06;;
43168;Laerm;28773;48.804;9.024;2023-02-28T11:39:21;32.97;29.88;40.24;;
43168;Laerm;28773;48.804;9.024;2023-02-28T11:44:25;33.04;29.95;42.91;;
43168;Laerm;28773;48.804;9.024;2023-02-28T11:49:32;32.63;29.63;39.63;;
43168;Laerm;28773;48.804;9.024;2023-02-28T11:54:53;33.75;29.79;41.87;;
43168;Laerm;28773;48.804;9.024;2023-02-28T11:57:33;33.27;29.75;41.08;;
43168;Laerm;28773;48.804;9.024;2023-02-28T12:02:50;33.14;29.56;41.07;;
43168;Laerm;28773;48.804;9.024;2023-02-28T12:05:30;33.58;29.89;46.64;;
43168;Laerm;28773;48.804;9.024;2023-02-28T12:08:12;32.57;29.78;39.90;;
43168;Laerm;28773;48.804;9.024;2023-02-28T12:15:57;33.26;29.93;42.18;;
43168;Laerm;28773;48.804;9.024;2023-02-28T12:18:33;33.22;29.85;42.14;;
43168;Laerm;28773;48.804;9.024;2023-02-28T12:26:19;33.37;29.64;41.13;;
43168;Laerm;28773;48.804;9.024;2023-02-28T12:28:50;33.82;29.59;48.34;;
43168;Laerm;28773;48.804;9.024;2023-02-28T12:31:35;33.61;29.79;43.58;;
43168;Laerm;28773;48.804;9.024;2023-02-28T12:34:03;32.56;29.70;38.81;;
43168;Laerm;28773;48.804;9.024;2023-02-28T12:36:30;33.72;29.71;40.25;;
43168;Laerm;28773;48.804;9.024;2023-02-28T12:41:29;32.58;29.64;51.35;;
43168;Laerm;28773;48.804;9.024;2023-02-28T12:44:02;32.74;29.88;40.28;;
43168;Laerm;28773;48.804;9.024;2023-02-28T12:46:30;32.17;29.65;39.07;;
43168;Laerm;28773;48.804;9.024;2023-02-28T12:48:58;33.16;29.63;41.74;;
43168;Laerm;28773;48.804;9.024;2023-02-28T12:51:25;32.18;29.71;40.00;;
43168;Laerm;28773;48.804;9.024;2023-02-28T12:53:57;33.53;29.59;40.89;;
43168;Laerm;28773;48.804;9.024;2023-02-28T12:59:03;32.89;29.69;41.70;;
43168;Laerm;28773;48.804;9.024;2023-02-28T13:01:36;32.83;29.42;44.10;;
43168;Laerm;28773;48.804;9.024;2023-02-28T13:09:25;33.91;29.82;46.52;;
43168;Laerm;28773;48.804;9.024;2023-02-28T13:11:53;33.36;29.87;40.32;;
43168;Laerm;28773;48.804;9.024;2023-02-28T13:14:29;32.31;29.43;38.35;;
43168;Laerm;28773;48.804;9.024;2023-02-28T13:19:24;32.93;29.68;40.34;;
43168;Laerm;28773;48.804;9.024;2023-02-28T13:21:50;33.51;30.08;44.05;;
43168;Laerm;28773;48.804;9.024;2023-02-28T13:29:32;33.07;29.67;40.26;;
43168;Laerm;28773;48.804;9.024;2023-02-28T13:34:27;32.78;29.81;41.82;;
43168;Laerm;28773;48.804;9.024;2023-02-28T13:37:03;34.50;29.90;51.11;;
43168;Laerm;28773;48.804;9.024;2023-02-28T13:45:31;32.90;29.73;41.51;;
43168;Laerm;28773;48.804;9.024;2023-02-28T13:47:33;33.63;29.82;43.60;;
43168;Laerm;28773;48.804;9.024;2023-02-28T13:52:48;33.18;29.59;39.62;;
43168;Laerm;28773;48.804;9.024;2023-02-28T14:08:59;34.24;29.54;45.61;;
43168;Laerm;28773;48.804;9.024;2023-02-28T14:11:27;33.46;29.62;43.00;;
43168;Laerm;28773;48.804;9.024;2023-02-28T14:13:53;33.34;29.62;39.49;;
43168;Laerm;28773;48.804;9.024;2023-02-28T14:16:20;32.79;29.72;38.71;;
43168;Laerm;28773;48.804;9.024;2023-02-28T14:19:32;33.01;29.71;42.05;;
43168;Laerm;28773;48.804;9.024;2023-02-28T14:21:35;33.83;29.73;45.68;;
43168;Laerm;28773;48.804;9.024;2023-02-28T14:26:51;33.66;29.62;43.42;;
43168;Laerm;28773;48.804;9.024;2023-02-28T14:31:58;32.90;29.71;39.80;;
43168;Laerm;28773;48.804;9.024;2023-02-28T14:36:58;33.04;29.51;40.47;;
43168;Laerm;28773;48.804;9.024;2023-02-28T14:39:25;32.78;29.74;39.23;;
43168;Laerm;28773;48.804;9.024;2023-02-28T14:41:50;33.20;29.48;44.77;;
43168;Laerm;28773;48.804;9.024;2023-02-28T14:46:46;33.97;29.75;43.15;;
43168;Laerm;28773;48.804;9.024;2023-02-28T14:49:23;32.99;29.77;40.49;;
43168;Laerm;28773;48.804;9.024;2023-02-28T14:51:49;33.37;29.51;41.16;;
43168;Laerm;28773;48.804;9.024;2023-02-28T14:54:16;33.66;29.66;40.60;;
43168;Laerm;28773;48.804;9.024;2023-02-28T14:56:43;33.05;29.43;41.24;;
43168;Laerm;28773;48.804;9.024;2023-02-28T14:59:24;32.41;29.71;38.65;;
43168;Laerm;28773;48.804;9.024;2023-02-28T15:01:50;33.78;29.89;39.14;;
43168;Laerm;28773;48.804;9.024;2023-02-28T15:04:23;33.20;29.58;38.93;;
43168;Laerm;28773;48.804;9.024;2023-02-28T15:07:08;33.02;29.55;39.40;;
43168;Laerm;28773;48.804;9.024;2023-02-28T15:09:33;33.57;29.74;42.15;;
43168;Laerm;28773;48.804;9.024;2023-02-28T15:11:59;33.19;29.56;41.43;;
43168;Laerm;28773;48.804;9.024;2023-02-28T15:14:24;33.88;29.83;41.07;;
43168;Laerm;28773;48.804;9.024;2023-02-28T15:16:55;33.71;29.88;43.94;;
43168;Laerm;28773;48.804;9.024;2023-02-28T15:19:32;33.93;29.72;43.93;;
43168;Laerm;28773;48.804;9.024;2023-02-28T15:22:00;34.10;29.67;42.08;;
43168;Laerm;28773;48.804;9.024;2023-02-28T15:24:40;33.91;29.92;43.04;;
43168;Laerm;28773;48.804;9.024;2023-02-28T15:27:07;33.69;29.82;42.18;;
43168;Laerm;28773;48.804;9.024;2023-02-28T15:29:41;34.44;29.63;48.88;;
43168;Laerm;28773;48.804;9.024;2023-02-28T15:32:14;33.10;29.76;39.99;;
43168;Laerm;28773;48.804;9.024;2023-02-28T15:34:43;33.26;29.74;41.81;;
43168;Laerm;28773;48.804;9.024;2023-02-28T15:39:53;33.20;29.80;38.80;;